sensor_id;sensor_type;location;lat;lon;timestamp;temperature;humidity
61351;DHT22;47119;49.130;9.218;2023-07-24T00:00:18;20.85;75.36
61351;DHT22;47119;49.130;9.218;2023-07-24T00:02:52;20.80;75.73
61351;DHT22;47119;49.130;9.218;2023-07-24T00:05:23;20.78;74.86
61351;DHT22;47119;49.130;9.218;2023-07-24T00:07:50;20.83;75.50
61351;DHT22;47119;49.130;9.218;2023-07-24T00:10:19;20.90;74.94
61351;DHT22;47119;49.130;9.218;2023-07-24T00:12:46;20.88;74.65
61351;DHT22;47119;49.130;9.218;2023-07-24T00:15:15;20.81;75.59
61351;DHT22;47119;49.130;9.218;2023-07-24T00:17:44;20.77;76.77
61351;DHT22;47119;49.130;9.218;2023-07-24T00:20:15;20.88;75.76
61351;DHT22;47119;49.130;9.218;2023-07-24T00:22:42;20.88;75.26
61351;DHT22;47119;49.130;9.218;2023-07-24T00:25:11;20.90;75.76
61351;DHT22;47119;49.130;9.218;2023-07-24T00:27:41;20.87;75.69
61351;DHT22;47119;49.130;9.218;2023-07-24T00:30:09;20.88;75.31
61351;DHT22;47119;49.130;9.218;2023-07-24T00:32:36;20.84;76.01
61351;DHT22;47119;49.130;9.218;2023-07-24T00:35:04;20.78;76.70
61351;DHT22;47119;49.130;9.218;2023-07-24T00:37:34;20.80;76.23
61351;DHT22;47119;49.130;9.218;2023-07-24T00:40:01;20.87;76.04
61351;DHT22;47119;49.130;9.218;2023-07-24T00:42:30;20.95;75.18
61351;DHT22;47119;49.130;9.218;2023-07-24T00:44:57;20.90;75.32
61351;DHT22;47119;49.130;9.218;2023-07-24T00:47:27;20.94;75.09
61351;DHT22;47119;49.130;9.218;2023-07-24T00:49:57;20.84;76.17
61351;DHT22;47119;49.130;9.218;2023-07-24T00:52:24;20.78;76.60
61351;DHT22;47119;49.130;9.218;2023-07-24T00:54:56;20.74;76.59
61351;DHT22;47119;49.130;9.218;2023-07-24T00:57:25;20.73;76.81
61351;DHT22;47119;49.130;9.218;2023-07-24T00:59:52;20.71;76.94
61351;DHT22;47119;49.130;9.218;2023-07-24T01:02:23;20.70;77.12
61351;DHT22;47119;49.130;9.218;2023-07-24T01:04:50;20.75;76.14
61351;DHT22;47119;49.130;9.218;2023-07-24T01:07:20;20.74;76.94
61351;DHT22;47119;49.130;9.218;2023-07-24T01:09:47;20.70;77.12
61351;DHT22;47119;49.130;9.218;2023-07-24T01:12:27;20.70;76.96
61351;DHT22;47119;49.130;9.218;2023-07-24T01:15:10;20.73;77.57
61351;DHT22;47119;49.130;9.218;2023-07-24T01:17:48;20.68;77.50
61351;DHT22;47119;49.130;9.218;2023-07-24T01:20:26;20.71;76.99
61351;DHT22;47119;49.130;9.218;2023-07-24T01:23:07;20.71;77.44
61351;DHT22;47119;49.130;9.218;2023-07-24T01:25:56;20.74;76.93
61351;DHT22;47119;49.130;9.218;2023-07-24T01:28:26;20.67;77.64
61351;DHT22;47119;49.130;9.218;2023-07-24T01:30:54;20.73;76.90
61351;DHT22;47119;49.130;9.218;2023-07-24T01:33:22;20.70;77.34
61351;DHT22;47119;49.130;9.218;2023-07-24T01:35:53;20.70;77.16
61351;DHT22;47119;49.130;9.218;2023-07-24T01:38:28;20.68;77.16
61351;DHT22;47119;49.130;9.218;2023-07-24T01:41:00;20.78;77.20
61351;DHT22;47119;49.130;9.218;2023-07-24T01:43:30;20.78;76.66
61351;DHT22;47119;49.130;9.218;2023-07-24T01:45:58;20.75;77.33
61351;DHT22;47119;49.130;9.218;2023-07-24T01:48:25;20.73;77.12
61351;DHT22;47119;49.130;9.218;2023-07-24T01:50:53;20.74;77.24
61351;DHT22;47119;49.130;9.218;2023-07-24T01:53:23;20.68;77.03
61351;DHT22;47119;49.130;9.218;2023-07-24T01:55:50;20.67;77.34
61351;DHT22;47119;49.130;9.218;2023-07-24T01:58:21;20.70;77.79
61351;DHT22;47119;49.130;9.218;2023-07-24T02:00:48;20.70;77.45
61351;DHT22;47119;49.130;9.218;2023-07-24T02:03:15;20.73;77.17
61351;DHT22;47119;49.130;9.218;2023-07-24T02:05:49;20.80;77.38
61351;DHT22;47119;49.130;9.218;2023-07-24T02:08:17;20.75;77.44
61351;DHT22;47119;49.130;9.218;2023-07-24T02:10:48;20.74;77.36
61351;DHT22;47119;49.130;9.218;2023-07-24T02:13:16;20.75;77.38
61351;DHT22;47119;49.130;9.218;2023-07-24T02:15:49;20.74;76.61
61351;DHT22;47119;49.130;9.218;2023-07-24T02:18:17;20.73;76.41
61351;DHT22;47119;49.130;9.218;2023-07-24T02:20:49;20.75;77.07
61351;DHT22;47119;49.130;9.218;2023-07-24T02:23:17;20.68;76.88
61351;DHT22;47119;49.130;9.218;2023-07-24T02:25:50;20.78;76.65
61351;DHT22;47119;49.130;9.218;2023-07-24T02:28:21;20.77;76.75
61351;DHT22;47119;49.130;9.218;2023-07-24T02:30:51;20.70;76.84
61351;DHT22;47119;49.130;9.218;2023-07-24T02:33:21;20.61;77.46
61351;DHT22;47119;49.130;9.218;2023-07-24T02:35:52;20.57;76.60
61351;DHT22;47119;49.130;9.218;2023-07-24T02:38:19;20.54;77.38
61351;DHT22;47119;49.130;9.218;2023-07-24T02:40:51;20.56;76.79
61351;DHT22;47119;49.130;9.218;2023-07-24T02:43:18;20.51;77.59
61351;DHT22;47119;49.130;9.218;2023-07-24T02:45:45;20.54;76.85
61351;DHT22;47119;49.130;9.218;2023-07-24T02:48:16;20.48;76.91
61351;DHT22;47119;49.130;9.218;2023-07-24T02:50:43;20.50;77.67
61351;DHT22;47119;49.130;9.218;2023-07-24T02:53:10;20.44;77.85
61351;DHT22;47119;49.130;9.218;2023-07-24T02:55:41;20.46;77.25
61351;DHT22;47119;49.130;9.218;2023-07-24T02:58:13;20.47;77.74
61351;DHT22;47119;49.130;9.218;2023-07-24T03:00:41;20.51;77.60
61351;DHT22;47119;49.130;9.218;2023-07-24T03:03:12;20.54;77.19
61351;DHT22;47119;49.130;9.218;2023-07-24T03:05:43;20.53;76.95
61351;DHT22;47119;49.130;9.218;2023-07-24T03:08:12;20.57;77.03
61351;DHT22;47119;49.130;9.218;2023-07-24T03:10:40;20.68;76.04
61351;DHT22;47119;49.130;9.218;2023-07-24T03:13:10;20.63;76.34
61351;DHT22;47119;49.130;9.218;2023-07-24T03:15:37;20.54;76.67
61351;DHT22;47119;49.130;9.218;2023-07-24T03:18:04;20.51;76.96
61351;DHT22;47119;49.130;9.218;2023-07-24T03:20:31;20.53;77.04
61351;DHT22;47119;49.130;9.218;2023-07-24T03:22:59;20.54;77.63
61351;DHT22;47119;49.130;9.218;2023-07-24T03:25:29;20.53;77.57
61351;DHT22;47119;49.130;9.218;2023-07-24T03:27:59;20.50;77.45
61351;DHT22;47119;49.130;9.218;2023-07-24T03:30:26;20.50;77.70
61351;DHT22;47119;49.130;9.218;2023-07-24T03:32:53;20.51;77.48
61351;DHT22;47119;49.130;9.218;2023-07-24T03:35:20;20.53;78.07
61351;DHT22;47119;49.130;9.218;2023-07-24T03:37:50;20.51;77.92
61351;DHT22;47119;49.130;9.218;2023-07-24T03:40:23;20.54;77.65
61351;DHT22;47119;49.130;9.218;2023-07-24T03:42:53;20.50;77.58
61351;DHT22;47119;49.130;9.218;2023-07-24T03:45:20;20.47;78.01
61351;DHT22;47119;49.130;9.218;2023-07-24T03:47:47;20.53;77.75
61351;DHT22;47119;49.130;9.218;2023-07-24T03:50:16;20.53;77.60
61351;DHT22;47119;49.130;9.218;2023-07-24T03:52:43;20.51;77.57
61351;DHT22;47119;49.130;9.218;2023-07-24T03:55:15;20.53;77.85
61351;DHT22;47119;49.130;9.218;2023-07-24T03:57:45;20.57;77.66
61351;DHT22;47119;49.130;9.218;2023-07-24T04:00:17;20.64;77.38
61351;DHT22;47119;49.130;9.218;2023-07-24T04:02:45;20.66;76.77
61351;DHT22;47119;49.130;9.218;2023-07-24T04:05:13;20.66;77.24
61351;DHT22;47119;49.130;9.218;2023-07-24T04:07:40;20.61;77.33
61351;DHT22;47119;49.130;9.218;2023-07-24T04:10:07;20.57;77.66
61351;DHT22;47119;49.130;9.218;2023-07-24T04:12:37;20.58;77.61
61351;DHT22;47119;49.130;9.218;2023-07-24T04:15:10;20.57;78.10
61351;DHT22;47119;49.130;9.218;2023-07-24T04:17:39;20.56;77.76
61351;DHT22;47119;49.130;9.218;2023-07-24T04:20:08;20.58;77.78
61351;DHT22;47119;49.130;9.218;2023-07-24T04:22:38;20.58;77.99
61351;DHT22;47119;49.130;9.218;2023-07-24T04:25:10;20.60;77.99
61351;DHT22;47119;49.130;9.218;2023-07-24T04:27:38;20.61;78.28
61351;DHT22;47119;49.130;9.218;2023-07-24T04:30:06;20.71;77.59
61351;DHT22;47119;49.130;9.218;2023-07-24T04:32:38;20.60;78.29
61351;DHT22;47119;49.130;9.218;2023-07-24T04:35:06;20.64;78.24
61351;DHT22;47119;49.130;9.218;2023-07-24T04:37:33;20.64;78.19
61351;DHT22;47119;49.130;9.218;2023-07-24T04:40:06;20.66;77.70
61351;DHT22;47119;49.130;9.218;2023-07-24T04:42:34;20.64;77.91
61351;DHT22;47119;49.130;9.218;2023-07-24T04:45:01;20.63;77.99
61351;DHT22;47119;49.130;9.218;2023-07-24T04:47:29;20.61;77.46
61351;DHT22;47119;49.130;9.218;2023-07-24T04:49:56;20.60;77.30
61351;DHT22;47119;49.130;9.218;2023-07-24T04:52:26;20.56;77.05
61351;DHT22;47119;49.130;9.218;2023-07-24T04:54:53;20.64;76.75
61351;DHT22;47119;49.130;9.218;2023-07-24T04:57:22;20.63;76.51
61351;DHT22;47119;49.130;9.218;2023-07-24T04:59:49;20.61;76.44
61351;DHT22;47119;49.130;9.218;2023-07-24T05:02:16;20.64;76.28
61351;DHT22;47119;49.130;9.218;2023-07-24T05:04:44;20.70;76.58
61351;DHT22;47119;49.130;9.218;2023-07-24T05:07:11;20.64;76.75
61351;DHT22;47119;49.130;9.218;2023-07-24T05:09:38;20.58;76.48
61351;DHT22;47119;49.130;9.218;2023-07-24T05:12:06;20.63;76.67
61351;DHT22;47119;49.130;9.218;2023-07-24T05:14:35;20.67;75.99
61351;DHT22;47119;49.130;9.218;2023-07-24T05:17:05;20.60;77.05
61351;DHT22;47119;49.130;9.218;2023-07-24T05:19:32;20.61;77.33
61351;DHT22;47119;49.130;9.218;2023-07-24T05:22:01;20.58;76.57
61351;DHT22;47119;49.130;9.218;2023-07-24T05:24:28;20.61;77.15
61351;DHT22;47119;49.130;9.218;2023-07-24T05:26:55;20.61;76.47
61351;DHT22;47119;49.130;9.218;2023-07-24T05:29:25;20.61;76.53
61351;DHT22;47119;49.130;9.218;2023-07-24T05:31:52;20.58;76.58
61351;DHT22;47119;49.130;9.218;2023-07-24T05:34:19;20.57;76.88
61351;DHT22;47119;49.130;9.218;2023-07-24T05:36:46;20.57;76.58
61351;DHT22;47119;49.130;9.218;2023-07-24T05:39:14;20.57;76.83
61351;DHT22;47119;49.130;9.218;2023-07-24T05:41:42;20.58;76.50
61351;DHT22;47119;49.130;9.218;2023-07-24T05:44:09;20.60;76.71
61351;DHT22;47119;49.130;9.218;2023-07-24T05:46:40;20.63;76.99
61351;DHT22;47119;49.130;9.218;2023-07-24T05:49:29;20.66;77.33
61351;DHT22;47119;49.130;9.218;2023-07-24T05:51:56;20.64;77.11
61351;DHT22;47119;49.130;9.218;2023-07-24T05:54:27;20.66;77.44
61351;DHT22;47119;49.130;9.218;2023-07-24T05:56:56;20.73;77.40
61351;DHT22;47119;49.130;9.218;2023-07-24T05:59:23;20.74;76.87
61351;DHT22;47119;49.130;9.218;2023-07-24T06:01:50;20.71;76.72
61351;DHT22;47119;49.130;9.218;2023-07-24T06:04:17;20.74;77.14
61351;DHT22;47119;49.130;9.218;2023-07-24T06:06:46;20.75;77.35
61351;DHT22;47119;49.130;9.218;2023-07-24T06:09:14;20.74;77.13
61351;DHT22;47119;49.130;9.218;2023-07-24T06:11:51;20.75;76.83
61351;DHT22;47119;49.130;9.218;2023-07-24T06:14:45;20.78;76.16
61351;DHT22;47119;49.130;9.218;2023-07-24T06:17:12;20.80;75.74
61351;DHT22;47119;49.130;9.218;2023-07-24T06:19:41;20.83;75.79
61351;DHT22;47119;49.130;9.218;2023-07-24T06:22:14;20.84;75.34
61351;DHT22;47119;49.130;9.218;2023-07-24T06:24:43;20.90;75.25
61351;DHT22;47119;49.130;9.218;2023-07-24T06:27:14;20.90;75.42
61351;DHT22;47119;49.130;9.218;2023-07-24T06:29:41;20.87;75.76
61351;DHT22;47119;49.130;9.218;2023-07-24T06:32:10;20.88;76.04
61351;DHT22;47119;49.130;9.218;2023-07-24T06:34:40;20.88;76.09
61351;DHT22;47119;49.130;9.218;2023-07-24T06:37:07;20.87;76.28
61351;DHT22;47119;49.130;9.218;2023-07-24T06:39:34;20.90;76.09
61351;DHT22;47119;49.130;9.218;2023-07-24T06:42:04;20.90;76.15
61351;DHT22;47119;49.130;9.218;2023-07-24T06:44:33;20.91;75.00
61351;DHT22;47119;49.130;9.218;2023-07-24T06:47:00;20.97;74.81
61351;DHT22;47119;49.130;9.218;2023-07-24T06:49:27;20.95;75.45
61351;DHT22;47119;49.130;9.218;2023-07-24T06:51:54;20.95;74.67
61351;DHT22;47119;49.130;9.218;2023-07-24T06:54:21;20.97;74.38
61351;DHT22;47119;49.130;9.218;2023-07-24T06:56:49;20.95;74.13
61351;DHT22;47119;49.130;9.218;2023-07-24T06:59:16;20.92;74.63
61351;DHT22;47119;49.130;9.218;2023-07-24T07:01:44;20.91;75.44
61351;DHT22;47119;49.130;9.218;2023-07-24T07:04:12;20.95;73.74
61351;DHT22;47119;49.130;9.218;2023-07-24T07:06:39;20.97;73.42
61351;DHT22;47119;49.130;9.218;2023-07-24T07:09:06;20.97;73.52
61351;DHT22;47119;49.130;9.218;2023-07-24T07:11:33;20.97;73.13
61351;DHT22;47119;49.130;9.218;2023-07-24T07:14:00;21.02;73.05
61351;DHT22;47119;49.130;9.218;2023-07-24T07:16:29;21.06;73.05
61351;DHT22;47119;49.130;9.218;2023-07-24T07:18:57;21.06;72.75
61351;DHT22;47119;49.130;9.218;2023-07-24T07:21:26;21.05;72.67
61351;DHT22;47119;49.130;9.218;2023-07-24T07:23:53;21.08;72.74
61351;DHT22;47119;49.130;9.218;2023-07-24T07:26:23;21.12;73.02
61351;DHT22;47119;49.130;9.218;2023-07-24T07:28:50;21.14;73.07
61351;DHT22;47119;49.130;9.218;2023-07-24T07:31:17;21.11;72.82
61351;DHT22;47119;49.130;9.218;2023-07-24T07:33:44;21.11;73.66
61351;DHT22;47119;49.130;9.218;2023-07-24T07:36:12;21.08;73.28
61351;DHT22;47119;49.130;9.218;2023-07-24T07:38:44;21.09;74.03
61351;DHT22;47119;49.130;9.218;2023-07-24T07:41:13;21.05;73.95
61351;DHT22;47119;49.130;9.218;2023-07-24T07:43:42;21.06;73.81
61351;DHT22;47119;49.130;9.218;2023-07-24T07:46:12;21.08;73.31
61351;DHT22;47119;49.130;9.218;2023-07-24T07:48:39;21.09;73.61
61351;DHT22;47119;49.130;9.218;2023-07-24T07:51:06;21.08;73.47
61351;DHT22;47119;49.130;9.218;2023-07-24T07:53:37;21.09;73.78
61351;DHT22;47119;49.130;9.218;2023-07-24T07:56:06;21.08;73.85
61351;DHT22;47119;49.130;9.218;2023-07-24T07:58:33;21.09;73.62
61351;DHT22;47119;49.130;9.218;2023-07-24T08:01:04;21.08;73.48
61351;DHT22;47119;49.130;9.218;2023-07-24T08:03:33;21.06;73.09
61351;DHT22;47119;49.130;9.218;2023-07-24T08:06:03;21.11;72.87
61351;DHT22;47119;49.130;9.218;2023-07-24T08:08:34;21.09;72.69
61351;DHT22;47119;49.130;9.218;2023-07-24T08:11:05;21.12;73.21
61351;DHT22;47119;49.130;9.218;2023-07-24T08:13:34;21.12;73.76
61351;DHT22;47119;49.130;9.218;2023-07-24T08:16:12;21.12;74.14
61351;DHT22;47119;49.130;9.218;2023-07-24T08:18:50;21.09;75.16
61351;DHT22;47119;49.130;9.218;2023-07-24T08:21:17;21.08;76.31
61351;DHT22;47119;49.130;9.218;2023-07-24T08:23:44;21.04;76.06
61351;DHT22;47119;49.130;9.218;2023-07-24T08:26:12;21.08;76.01
61351;DHT22;47119;49.130;9.218;2023-07-24T08:28:39;21.09;76.14
61351;DHT22;47119;49.130;9.218;2023-07-24T08:31:07;21.06;76.46
61351;DHT22;47119;49.130;9.218;2023-07-24T08:33:35;21.08;77.22
61351;DHT22;47119;49.130;9.218;2023-07-24T08:36:06;21.06;77.10
61351;DHT22;47119;49.130;9.218;2023-07-24T08:38:36;21.12;76.50
61351;DHT22;47119;49.130;9.218;2023-07-24T08:41:04;21.08;77.79
61351;DHT22;47119;49.130;9.218;2023-07-24T08:43:37;21.05;77.67
61351;DHT22;47119;49.130;9.218;2023-07-24T08:46:07;21.06;77.92
61351;DHT22;47119;49.130;9.218;2023-07-24T08:48:36;21.06;78.61
61351;DHT22;47119;49.130;9.218;2023-07-24T08:51:06;21.05;78.32
61351;DHT22;47119;49.130;9.218;2023-07-24T08:53:35;21.06;77.57
61351;DHT22;47119;49.130;9.218;2023-07-24T08:56:06;21.02;78.14
61351;DHT22;47119;49.130;9.218;2023-07-24T08:58:40;21.06;77.67
61351;DHT22;47119;49.130;9.218;2023-07-24T09:01:08;21.01;78.17
61351;DHT22;47119;49.130;9.218;2023-07-24T09:03:36;21.05;78.69
61351;DHT22;47119;49.130;9.218;2023-07-24T09:06:06;21.02;77.42
61351;DHT22;47119;49.130;9.218;2023-07-24T09:12:48;21.06;77.83
61351;DHT22;47119;49.130;9.218;2023-07-24T09:15:20;21.08;77.79
61351;DHT22;47119;49.130;9.218;2023-07-24T09:17:48;21.06;77.33
61351;DHT22;47119;49.130;9.218;2023-07-24T09:20:17;21.08;77.12
61351;DHT22;47119;49.130;9.218;2023-07-24T09:22:50;21.09;77.98
61351;DHT22;47119;49.130;9.218;2023-07-24T09:25:29;21.11;78.01
61351;DHT22;47119;49.130;9.218;2023-07-24T09:27:57;21.16;76.16
61351;DHT22;47119;49.130;9.218;2023-07-24T09:30:28;21.15;77.01
61351;DHT22;47119;49.130;9.218;2023-07-24T09:32:57;21.18;76.21
61351;DHT22;47119;49.130;9.218;2023-07-24T09:35:24;21.18;77.68
61351;DHT22;47119;49.130;9.218;2023-07-24T09:38:03;21.19;78.28
61351;DHT22;47119;49.130;9.218;2023-07-24T09:40:39;21.18;77.16
61351;DHT22;47119;49.130;9.218;2023-07-24T09:43:16;21.21;76.43
61351;DHT22;47119;49.130;9.218;2023-07-24T09:45:45;21.21;78.01
61351;DHT22;47119;49.130;9.218;2023-07-24T09:48:15;21.19;77.07
61351;DHT22;47119;49.130;9.218;2023-07-24T09:50:45;21.24;76.89
61351;DHT22;47119;49.130;9.218;2023-07-24T09:53:19;21.26;75.98
61351;DHT22;47119;49.130;9.218;2023-07-24T09:55:52;21.31;75.62
61351;DHT22;47119;49.130;9.218;2023-07-24T09:58:26;21.29;75.42
61351;DHT22;47119;49.130;9.218;2023-07-24T10:00:57;21.28;76.31
61351;DHT22;47119;49.130;9.218;2023-07-24T10:03:26;21.34;76.11
61351;DHT22;47119;49.130;9.218;2023-07-24T10:05:57;21.31;75.34
61351;DHT22;47119;49.130;9.218;2023-07-24T10:08:26;21.32;75.66
61351;DHT22;47119;49.130;9.218;2023-07-24T10:10:54;21.29;75.18
61351;DHT22;47119;49.130;9.218;2023-07-24T10:13:21;21.31;77.51
61351;DHT22;47119;49.130;9.218;2023-07-24T10:15:58;21.25;75.07
61351;DHT22;47119;49.130;9.218;2023-07-24T10:18:56;21.32;75.63
61351;DHT22;47119;49.130;9.218;2023-07-24T10:21:51;21.34;74.85
61351;DHT22;47119;49.130;9.218;2023-07-24T10:24:44;21.32;75.00
61351;DHT22;47119;49.130;9.218;2023-07-24T10:27:12;21.28;74.75
61351;DHT22;47119;49.130;9.218;2023-07-24T10:29:40;21.28;74.60
61351;DHT22;47119;49.130;9.218;2023-07-24T10:32:20;21.29;74.72
61351;DHT22;47119;49.130;9.218;2023-07-24T10:34:56;21.32;75.59
61351;DHT22;47119;49.130;9.218;2023-07-24T10:37:34;21.29;75.23
61351;DHT22;47119;49.130;9.218;2023-07-24T10:40:06;21.31;76.28
61351;DHT22;47119;49.130;9.218;2023-07-24T10:42:45;21.29;76.78
61351;DHT22;47119;49.130;9.218;2023-07-24T10:45:14;21.26;77.30
61351;DHT22;47119;49.130;9.218;2023-07-24T10:47:46;21.28;77.37
61351;DHT22;47119;49.130;9.218;2023-07-24T10:50:18;21.28;78.95
61351;DHT22;47119;49.130;9.218;2023-07-24T10:52:47;21.31;78.10
61351;DHT22;47119;49.130;9.218;2023-07-24T10:55:14;21.32;78.87
61351;DHT22;47119;49.130;9.218;2023-07-24T10:57:41;21.32;78.40
61351;DHT22;47119;49.130;9.218;2023-07-24T11:00:14;21.34;76.30
61351;DHT22;47119;49.130;9.218;2023-07-24T11:02:43;21.32;78.77
61351;DHT22;47119;49.130;9.218;2023-07-24T11:05:12;21.35;76.94
61351;DHT22;47119;49.130;9.218;2023-07-24T11:07:40;21.28;78.31
61351;DHT22;47119;49.130;9.218;2023-07-24T11:10:15;21.29;76.63
61351;DHT22;47119;49.130;9.218;2023-07-24T11:12:44;21.26;79.55
61351;DHT22;47119;49.130;9.218;2023-07-24T11:15:13;21.24;79.94
61351;DHT22;47119;49.130;9.218;2023-07-24T11:17:42;21.25;79.08
61351;DHT22;47119;49.130;9.218;2023-07-24T11:20:12;21.28;79.40
61351;DHT22;47119;49.130;9.218;2023-07-24T11:22:42;21.26;79.59
61351;DHT22;47119;49.130;9.218;2023-07-24T11:25:12;21.24;79.87
61351;DHT22;47119;49.130;9.218;2023-07-24T11:27:40;21.24;80.25
61351;DHT22;47119;49.130;9.218;2023-07-24T11:30:10;21.22;79.39
61351;DHT22;47119;49.130;9.218;2023-07-24T11:32:39;21.19;80.72
61351;DHT22;47119;49.130;9.218;2023-07-24T11:35:07;21.24;79.92
61351;DHT22;47119;49.130;9.218;2023-07-24T11:37:37;21.19;79.98
61351;DHT22;47119;49.130;9.218;2023-07-24T11:40:05;21.21;80.01
61351;DHT22;47119;49.130;9.218;2023-07-24T11:42:39;21.25;79.57
61351;DHT22;47119;49.130;9.218;2023-07-24T11:45:09;21.25;80.82
61351;DHT22;47119;49.130;9.218;2023-07-24T11:47:48;21.21;80.42
61351;DHT22;47119;49.130;9.218;2023-07-24T11:50:16;21.26;80.01
61351;DHT22;47119;49.130;9.218;2023-07-24T11:52:47;21.22;80.95
61351;DHT22;47119;49.130;9.218;2023-07-24T11:55:30;21.25;80.91
61351;DHT22;47119;49.130;9.218;2023-07-24T11:58:00;21.24;81.17
61351;DHT22;47119;49.130;9.218;2023-07-24T12:00:32;21.24;80.95
61351;DHT22;47119;49.130;9.218;2023-07-24T12:03:01;21.32;80.19
61351;DHT22;47119;49.130;9.218;2023-07-24T12:05:38;21.31;79.35
61351;DHT22;47119;49.130;9.218;2023-07-24T12:08:12;21.32;80.07
61351;DHT22;47119;49.130;9.218;2023-07-24T12:10:43;21.32;79.75
61351;DHT22;47119;49.130;9.218;2023-07-24T12:13:12;21.35;79.89
61351;DHT22;47119;49.130;9.218;2023-07-24T12:15:39;21.34;80.22
61351;DHT22;47119;49.130;9.218;2023-07-24T12:18:08;21.35;80.22
61351;DHT22;47119;49.130;9.218;2023-07-24T12:20:35;21.34;79.89
61351;DHT22;47119;49.130;9.218;2023-07-24T12:23:02;21.36;80.07
61351;DHT22;47119;49.130;9.218;2023-07-24T12:25:31;21.35;79.41
61351;DHT22;47119;49.130;9.218;2023-07-24T12:28:00;21.34;79.09
61351;DHT22;47119;49.130;9.218;2023-07-24T12:30:30;21.36;78.46
61351;DHT22;47119;49.130;9.218;2023-07-24T12:32:57;21.32;78.73
61351;DHT22;47119;49.130;9.218;2023-07-24T12:35:24;21.36;79.31
61351;DHT22;47119;49.130;9.218;2023-07-24T12:37:51;21.34;79.24
61351;DHT22;47119;49.130;9.218;2023-07-24T12:40:21;21.35;78.60
61351;DHT22;47119;49.130;9.218;2023-07-24T12:42:49;21.34;78.11
61351;DHT22;47119;49.130;9.218;2023-07-24T12:45:16;21.34;79.01
61351;DHT22;47119;49.130;9.218;2023-07-24T12:47:43;21.32;79.28
61351;DHT22;47119;49.130;9.218;2023-07-24T12:50:10;21.28;78.74
61351;DHT22;47119;49.130;9.218;2023-07-24T12:52:39;21.32;79.19
61351;DHT22;47119;49.130;9.218;2023-07-24T12:55:07;21.31;78.78
61351;DHT22;47119;49.130;9.218;2023-07-24T12:57:34;21.29;78.55
61351;DHT22;47119;49.130;9.218;2023-07-24T13:00:06;21.31;78.48
61351;DHT22;47119;49.130;9.218;2023-07-24T13:02:34;21.32;78.04
61351;DHT22;47119;49.130;9.218;2023-07-24T13:05:05;21.25;78.24
61351;DHT22;47119;49.130;9.218;2023-07-24T13:07:34;21.26;78.47
61351;DHT22;47119;49.130;9.218;2023-07-24T13:10:01;21.31;78.02
61351;DHT22;47119;49.130;9.218;2023-07-24T13:12:28;21.31;77.87
61351;DHT22;47119;49.130;9.218;2023-07-24T13:14:55;21.31;77.58
61351;DHT22;47119;49.130;9.218;2023-07-24T13:17:25;21.34;77.55
61351;DHT22;47119;49.130;9.218;2023-07-24T13:19:58;21.35;77.52
61351;DHT22;47119;49.130;9.218;2023-07-24T13:22:28;21.34;77.89
61351;DHT22;47119;49.130;9.218;2023-07-24T13:24:55;21.32;77.21
61351;DHT22;47119;49.130;9.218;2023-07-24T13:27:22;21.32;77.22
61351;DHT22;47119;49.130;9.218;2023-07-24T13:29:51;21.32;77.23
61351;DHT22;47119;49.130;9.218;2023-07-24T13:32:18;21.28;77.46
61351;DHT22;47119;49.130;9.218;2023-07-24T13:34:49;21.31;77.42
61351;DHT22;47119;49.130;9.218;2023-07-24T13:37:16;21.31;77.39
61351;DHT22;47119;49.130;9.218;2023-07-24T13:39:48;21.32;77.32
61351;DHT22;47119;49.130;9.218;2023-07-24T13:42:17;21.34;77.09
61351;DHT22;47119;49.130;9.218;2023-07-24T13:44:46;21.29;76.72
61351;DHT22;47119;49.130;9.218;2023-07-24T13:47:13;21.35;77.42
61351;DHT22;47119;49.130;9.218;2023-07-24T13:52:56;21.36;77.09
61351;DHT22;47119;49.130;9.218;2023-07-24T13:55:23;21.35;76.62
61351;DHT22;47119;49.130;9.218;2023-07-24T13:57:50;21.31;76.74
61351;DHT22;47119;49.130;9.218;2023-07-24T14:00:20;21.31;76.69
61351;DHT22;47119;49.130;9.218;2023-07-24T14:02:47;21.31;76.95
61351;DHT22;47119;49.130;9.218;2023-07-24T14:05:15;21.29;77.09
61351;DHT22;47119;49.130;9.218;2023-07-24T14:07:46;21.32;76.88
61351;DHT22;47119;49.130;9.218;2023-07-24T14:10:13;21.32;76.80
61351;DHT22;47119;49.130;9.218;2023-07-24T14:12:40;21.31;76.56
61351;DHT22;47119;49.130;9.218;2023-07-24T14:15:09;21.32;76.35
61351;DHT22;47119;49.130;9.218;2023-07-24T14:17:36;21.32;76.40
61351;DHT22;47119;49.130;9.218;2023-07-24T14:20:05;21.29;76.27
61351;DHT22;47119;49.130;9.218;2023-07-24T14:22:35;21.32;75.97
61351;DHT22;47119;49.130;9.218;2023-07-24T14:25:04;21.35;75.84
61351;DHT22;47119;49.130;9.218;2023-07-24T14:27:31;21.32;75.84
61351;DHT22;47119;49.130;9.218;2023-07-24T14:30:00;21.39;75.34
61351;DHT22;47119;49.130;9.218;2023-07-24T14:32:29;21.42;75.48
61351;DHT22;47119;49.130;9.218;2023-07-24T14:34:58;21.43;75.40
61351;DHT22;47119;49.130;9.218;2023-07-24T14:37:27;21.41;75.20
61351;DHT22;47119;49.130;9.218;2023-07-24T14:39:54;21.39;75.09
61351;DHT22;47119;49.130;9.218;2023-07-24T14:42:25;21.38;75.24
61351;DHT22;47119;49.130;9.218;2023-07-24T14:44:54;21.36;75.31
61351;DHT22;47119;49.130;9.218;2023-07-24T14:47:27;21.39;75.22
61351;DHT22;47119;49.130;9.218;2023-07-24T14:49:57;21.38;75.38
61351;DHT22;47119;49.130;9.218;2023-07-24T14:52:26;21.39;74.87
61351;DHT22;47119;49.130;9.218;2023-07-24T14:54:53;21.42;74.95
61351;DHT22;47119;49.130;9.218;2023-07-24T14:57:25;21.42;75.30
61351;DHT22;47119;49.130;9.218;2023-07-24T14:59:52;21.45;74.76
61351;DHT22;47119;49.130;9.218;2023-07-24T15:02:19;21.42;75.04
61351;DHT22;47119;49.130;9.218;2023-07-24T15:04:51;21.43;74.78
61351;DHT22;47119;49.130;9.218;2023-07-24T15:07:20;21.46;74.69
61351;DHT22;47119;49.130;9.218;2023-07-24T15:09:49;21.46;74.83
61351;DHT22;47119;49.130;9.218;2023-07-24T15:12:19;21.47;74.84
61351;DHT22;47119;49.130;9.218;2023-07-24T15:14:51;21.46;74.57
61351;DHT22;47119;49.130;9.218;2023-07-24T15:17:21;21.49;75.06
61351;DHT22;47119;49.130;9.218;2023-07-24T15:19:50;21.47;74.83
61351;DHT22;47119;49.130;9.218;2023-07-24T15:22:20;21.45;74.42
61351;DHT22;47119;49.130;9.218;2023-07-24T15:24:48;21.46;75.28
61351;DHT22;47119;49.130;9.218;2023-07-24T15:27:15;21.47;75.01
61351;DHT22;47119;49.130;9.218;2023-07-24T15:30:08;21.49;75.07
61351;DHT22;47119;49.130;9.218;2023-07-24T15:32:35;21.47;74.40
61351;DHT22;47119;49.130;9.218;2023-07-24T15:35:02;21.47;74.44
61351;DHT22;47119;49.130;9.218;2023-07-24T15:37:33;21.46;74.74
61351;DHT22;47119;49.130;9.218;2023-07-24T15:39:59;21.47;74.32
61351;DHT22;47119;49.130;9.218;2023-07-24T15:42:26;21.47;74.51
61351;DHT22;47119;49.130;9.218;2023-07-24T15:44:55;21.45;74.29
61351;DHT22;47119;49.130;9.218;2023-07-24T15:47:24;21.45;74.71
61351;DHT22;47119;49.130;9.218;2023-07-24T15:49:54;21.47;74.58
61351;DHT22;47119;49.130;9.218;2023-07-24T15:55:38;21.49;80.22